sensor_id;sensor_type;location;lat;lon;timestamp;pressure;altitude;pressure_sealevel;temperature;humidity
30730;BME280;17476;48.458;7.928;2024-03-02T00:00:11;98778.41;;;6.63;96.78
30730;BME280;17476;48.458;7.928;2024-03-02T00:05:10;98773.47;;;6.76;96.02
30730;BME280;17476;48.458;7.928;2024-03-02T00:07:36;98767.16;;;6.78;95.35
30730;BME280;17476;48.458;7.928;2024-03-02T00:10:10;98767.94;;;6.87;95.38
30730;BME280;17476;48.458;7.928;2024-03-02T00:12:40;98776.09;;;6.76;95.02
30730;BME280;17476;48.458;7.928;2024-03-02T00:15:51;98779.53;;;6.68;95.80
30730;BME280;17476;48.458;7.928;2024-03-02T00:18:30;98773.66;;;6.74;95.79
30730;BME280;17476;48.458;7.928;2024-03-02T00:20:57;98775.34;;;6.59;96.33
30730;BME280;17476;48.458;7.928;2024-03-02T00:23:26;98771.94;;;6.59;96.65
30730;BME280;17476;48.458;7.928;2024-03-02T00:25:54;98782.97;;;6.61;95.87
30730;BME280;17476;48.458;7.928;2024-03-02T00:28:29;98780.03;;;6.55;95.64
30730;BME280;17476;48.458;7.928;2024-03-02T00:31:07;98790.59;;;6.54;96.46
30730;BME280;17476;48.458;7.928;2024-03-02T00:33:43;98790.28;;;6.57;95.72
30730;BME280;17476;48.458;7.928;2024-03-02T00:36:10;98793.69;;;6.57;97.11
30730;BME280;17476;48.458;7.928;2024-03-02T00:38:46;98801.84;;;6.38;96.34
30730;BME280;17476;48.458;7.928;2024-03-02T00:41:21;98807.66;;;6.48;96.40
30730;BME280;17476;48.458;7.928;2024-03-02T00:44:07;98795.47;;;6.49;97.34
30730;BME280;17476;48.458;7.928;2024-03-02T00:46:42;98792.09;;;6.40;98.12
30730;BME280;17476;48.458;7.928;2024-03-02T00:49:20;98791.00;;;6.18;98.25
30730;BME280;17476;48.458;7.928;2024-03-02T00:51:48;98792.28;;;6.06;100.00
30730;BME280;17476;48.458;7.928;2024-03-02T00:54:15;98790.81;;;6.20;99.33
30730;BME280;17476;48.458;7.928;2024-03-02T00:56:44;98784.16;;;6.34;98.17
30730;BME280;17476;48.458;7.928;2024-03-02T00:59:10;98780.75;;;6.33;97.33
30730;BME280;17476;48.458;7.928;2024-03-02T01:01:36;98778.75;;;6.43;98.05
30730;BME280;17476;48.458;7.928;2024-03-02T01:04:03;98778.09;;;6.49;96.97
30730;BME280;17476;48.458;7.928;2024-03-02T01:06:30;98781.84;;;6.47;97.15
30730;BME280;17476;48.458;7.928;2024-03-02T01:08:56;98770.50;;;6.48;96.48
30730;BME280;17476;48.458;7.928;2024-03-02T01:11:21;98775.84;;;6.46;96.10
30730;BME280;17476;48.458;7.928;2024-03-02T01:13:47;98783.81;;;6.45;95.98
30730;BME280;17476;48.458;7.928;2024-03-02T01:16:14;98777.78;;;6.52;96.22
30730;BME280;17476;48.458;7.928;2024-03-02T01:18:41;98785.22;;;6.55;95.78
30730;BME280;17476;48.458;7.928;2024-03-02T01:21:07;98774.56;;;6.42;95.33
30730;BME280;17476;48.458;7.928;2024-03-02T01:23:32;98771.34;;;6.32;95.77
30730;BME280;17476;48.458;7.928;2024-03-02T01:25:58;98772.53;;;5.97;97.59
30730;BME280;17476;48.458;7.928;2024-03-02T01:28:24;98770.88;;;5.96;97.97
30730;BME280;17476;48.458;7.928;2024-03-02T01:30:50;98773.66;;;6.11;97.48
30730;BME280;17476;48.458;7.928;2024-03-02T01:33:17;98776.06;;;5.96;97.77
30730;BME280;17476;48.458;7.928;2024-03-02T01:35:43;98776.72;;;5.98;98.18
30730;BME280;17476;48.458;7.928;2024-03-02T01:38:09;98779.50;;;5.96;98.01
30730;BME280;17476;48.458;7.928;2024-03-02T01:40:36;98784.81;;;5.95;97.81
30730;BME280;17476;48.458;7.928;2024-03-02T01:43:05;98779.50;;;5.96;98.09
30730;BME280;17476;48.458;7.928;2024-03-02T01:45:32;98766.16;;;6.08;98.32
30730;BME280;17476;48.458;7.928;2024-03-02T01:47:58;98765.50;;;6.22;97.11
30730;BME280;17476;48.458;7.928;2024-03-02T01:50:32;98776.22;;;6.19;96.97
30730;BME280;17476;48.458;7.928;2024-03-02T01:52:59;98778.81;;;6.02;97.54
30730;BME280;17476;48.458;7.928;2024-03-02T01:55:25;98773.16;;;6.07;97.18
30730;BME280;17476;48.458;7.928;2024-03-02T01:57:52;98766.50;;;6.05;97.88
30730;BME280;17476;48.458;7.928;2024-03-02T02:00:20;98772.50;;;6.05;98.03
30730;BME280;17476;48.458;7.928;2024-03-02T02:02:48;98771.69;;;6.05;97.63
30730;BME280;17476;48.458;7.928;2024-03-02T02:05:14;98772.31;;;5.82;98.43
30730;BME280;17476;48.458;7.928;2024-03-02T02:07:43;98774.91;;;5.90;97.61
30730;BME280;17476;48.458;7.928;2024-03-02T02:10:10;98769.72;;;5.90;98.05
30730;BME280;17476;48.458;7.928;2024-03-02T02:12:36;98769.88;;;5.89;98.18
30730;BME280;17476;48.458;7.928;2024-03-02T02:15:24;98767.63;;;5.86;98.89
30730;BME280;17476;48.458;7.928;2024-03-02T02:17:49;98760.66;;;5.94;99.13
30730;BME280;17476;48.458;7.928;2024-03-02T02:20:15;98755.16;;;6.06;98.01
30730;BME280;17476;48.458;7.928;2024-03-02T02:22:59;98743.00;;;5.98;98.25
30730;BME280;17476;48.458;7.928;2024-03-02T02:25:26;98746.41;;;5.98;97.45
30730;BME280;17476;48.458;7.928;2024-03-02T02:27:52;98742.16;;;6.06;97.70
30730;BME280;17476;48.458;7.928;2024-03-02T02:30:26;98745.75;;;6.05;97.62
30730;BME280;17476;48.458;7.928;2024-03-02T02:32:52;98743.94;;;5.81;97.39
30730;BME280;17476;48.458;7.928;2024-03-02T02:35:18;98736.31;;;5.87;98.71
30730;BME280;17476;48.458;7.928;2024-03-02T02:37:46;98746.69;;;5.63;98.51
30730;BME280;17476;48.458;7.928;2024-03-02T02:40:12;98742.63;;;5.68;99.15
30730;BME280;17476;48.458;7.928;2024-03-02T02:42:39;98741.16;;;5.82;97.91
30730;BME280;17476;48.458;7.928;2024-03-02T02:45:20;98733.06;;;5.69;98.81
30730;BME280;17476;48.458;7.928;2024-03-02T02:47:46;98724.16;;;5.71;98.46
30730;BME280;17476;48.458;7.928;2024-03-02T02:50:12;98725.63;;;5.66;98.70
30730;BME280;17476;48.458;7.928;2024-03-02T02:52:40;98735.34;;;5.64;99.81
30730;BME280;17476;48.458;7.928;2024-03-02T02:55:11;98733.22;;;5.67;99.50
30730;BME280;17476;48.458;7.928;2024-03-02T02:57:40;98728.38;;;5.64;98.61
30730;BME280;17476;48.458;7.928;2024-03-02T03:00:12;98735.34;;;5.72;98.99
30730;BME280;17476;48.458;7.928;2024-03-02T03:02:46;98727.56;;;5.64;98.06
30730;BME280;17476;48.458;7.928;2024-03-02T03:05:27;98727.09;;;5.77;98.92
30730;BME280;17476;48.458;7.928;2024-03-02T03:07:53;98716.53;;;5.78;98.47
30730;BME280;17476;48.458;7.928;2024-03-02T03:10:19;98711.69;;;5.83;97.30
30730;BME280;17476;48.458;7.928;2024-03-02T03:12:47;98714.59;;;5.80;97.87
30730;BME280;17476;48.458;7.928;2024-03-02T03:15:13;98713.94;;;5.78;97.50
30730;BME280;17476;48.458;7.928;2024-03-02T03:17:40;98711.50;;;5.85;97.58
30730;BME280;17476;48.458;7.928;2024-03-02T03:20:06;98708.44;;;5.65;98.06
30730;BME280;17476;48.458;7.928;2024-03-02T03:22:36;98702.75;;;5.53;98.83
30730;BME280;17476;48.458;7.928;2024-03-02T03:25:02;98706.66;;;5.57;99.62
30730;BME280;17476;48.458;7.928;2024-03-02T03:27:29;98704.88;;;5.58;99.37
30730;BME280;17476;48.458;7.928;2024-03-02T03:29:55;98705.53;;;5.43;100.00
30730;BME280;17476;48.458;7.928;2024-03-02T03:32:21;98698.72;;;5.51;98.98
30730;BME280;17476;48.458;7.928;2024-03-02T03:34:47;98698.06;;;5.40;99.65
30730;BME280;17476;48.458;7.928;2024-03-02T03:37:14;98696.28;;;5.33;100.00
30730;BME280;17476;48.458;7.928;2024-03-02T03:39:41;98698.38;;;5.37;100.00
30730;BME280;17476;48.458;7.928;2024-03-02T03:42:06;98698.22;;;5.47;100.00
30730;BME280;17476;48.458;7.928;2024-03-02T03:44:32;98695.97;;;5.44;98.85
30730;BME280;17476;48.458;7.928;2024-03-02T03:46:59;98695.63;;;5.47;98.68
30730;BME280;17476;48.458;7.928;2024-03-02T03:49:26;98702.63;;;5.63;98.38
30730;BME280;17476;48.458;7.928;2024-03-02T03:51:52;98709.09;;;5.42;98.84
30730;BME280;17476;48.458;7.928;2024-03-02T03:54:18;98708.94;;;5.44;99.54
30730;BME280;17476;48.458;7.928;2024-03-02T03:56:43;98711.69;;;5.51;99.12
30730;BME280;17476;48.458;7.928;2024-03-02T03:59:09;98703.91;;;5.42;99.72
30730;BME280;17476;48.458;7.928;2024-03-02T04:01:35;98707.31;;;5.51;99.44
30730;BME280;17476;48.458;7.928;2024-03-02T04:04:01;98718.16;;;5.38;99.75
30730;BME280;17476;48.458;7.928;2024-03-02T04:06:30;98731.09;;;5.22;99.69
30730;BME280;17476;48.458;7.928;2024-03-02T04:08:55;98730.28;;;5.22;100.00
30730;BME280;17476;48.458;7.928;2024-03-02T04:11:21;98716.50;;;5.21;100.00
30730;BME280;17476;48.458;7.928;2024-03-02T04:13:47;98708.72;;;5.13;100.00
30730;BME280;17476;48.458;7.928;2024-03-02T04:16:13;98726.03;;;5.12;100.00
30730;BME280;17476;48.458;7.928;2024-03-02T04:18:39;98733.00;;;5.12;100.00
30730;BME280;17476;48.458;7.928;2024-03-02T04:21:05;98744.63;;;5.08;100.00
30730;BME280;17476;48.458;7.928;2024-03-02T04:23:31;98758.09;;;5.11;100.00
30730;BME280;17476;48.458;7.928;2024-03-02T04:25:56;98760.06;;;5.17;100.00
30730;BME280;17476;48.458;7.928;2024-03-02T04:28:22;98755.22;;;5.23;99.64
30730;BME280;17476;48.458;7.928;2024-03-02T04:30:48;98758.13;;;5.19;99.91
30730;BME280;17476;48.458;7.928;2024-03-02T04:33:14;98750.22;;;5.29;100.00
30730;BME280;17476;48.458;7.928;2024-03-02T04:35:39;98755.25;;;5.47;99.51
30730;BME280;17476;48.458;7.928;2024-03-02T04:38:05;98750.25;;;5.54;98.87
30730;BME280;17476;48.458;7.928;2024-03-02T04:40:31;98758.66;;;5.31;98.87
30730;BME280;17476;48.458;7.928;2024-03-02T04:42:57;98759.44;;;5.15;98.86
30730;BME280;17476;48.458;7.928;2024-03-02T04:45:24;98747.75;;;5.19;100.00
30730;BME280;17476;48.458;7.928;2024-03-02T04:47:50;98750.84;;;5.23;99.66
30730;BME280;17476;48.458;7.928;2024-03-02T04:50:16;98763.97;;;5.22;100.00
30730;BME280;17476;48.458;7.928;2024-03-02T04:52:42;98750.19;;;5.21;99.06
30730;BME280;17476;48.458;7.928;2024-03-02T04:55:07;98755.00;;;5.08;99.81
30730;BME280;17476;48.458;7.928;2024-03-02T04:57:53;98750.63;;;5.00;100.00
30730;BME280;17476;48.458;7.928;2024-03-02T05:00:20;98744.16;;;4.96;100.00
30730;BME280;17476;48.458;7.928;2024-03-02T05:02:46;98741.09;;;5.09;99.73
30730;BME280;17476;48.458;7.928;2024-03-02T05:05:12;98734.75;;;4.95;100.00
30730;BME280;17476;48.458;7.928;2024-03-02T05:07:40;98734.59;;;4.97;100.00
30730;BME280;17476;48.458;7.928;2024-03-02T05:10:08;98737.38;;;5.03;100.00
30730;BME280;17476;48.458;7.928;2024-03-02T05:12:34;98737.34;;;4.95;100.00
30730;BME280;17476;48.458;7.928;2024-03-02T05:15:14;98732.16;;;4.95;100.00
30730;BME280;17476;48.458;7.928;2024-03-02T05:17:41;98730.41;;;5.04;100.00
30730;BME280;17476;48.458;7.928;2024-03-02T05:20:10;98730.44;;;5.20;100.00
30730;BME280;17476;48.458;7.928;2024-03-02T05:22:37;98732.72;;;5.15;100.00
30730;BME280;17476;48.458;7.928;2024-03-02T05:25:06;98739.31;;;5.09;100.00
30730;BME280;17476;48.458;7.928;2024-03-02T05:27:32;98739.47;;;5.08;100.00
30730;BME280;17476;48.458;7.928;2024-03-02T05:29:59;98742.38;;;4.97;100.00
30730;BME280;17476;48.458;7.928;2024-03-02T05:32:25;98746.22;;;4.92;100.00
30730;BME280;17476;48.458;7.928;2024-03-02T05:34:51;98758.38;;;5.00;100.00
30730;BME280;17476;48.458;7.928;2024-03-02T05:37:17;98750.47;;;5.02;100.00
30730;BME280;17476;48.458;7.928;2024-03-02T05:39:43;98746.56;;;4.98;100.00
30730;BME280;17476;48.458;7.928;2024-03-02T05:42:09;98749.16;;;4.98;100.00
30730;BME280;17476;48.458;7.928;2024-03-02T05:44:36;98747.88;;;5.02;100.00
30730;BME280;17476;48.458;7.928;2024-03-02T05:47:03;98753.06;;;5.02;100.00
30730;BME280;17476;48.458;7.928;2024-03-02T05:49:29;98754.66;;;4.95;100.00
30730;BME280;17476;48.458;7.928;2024-03-02T05:51:55;98752.06;;;4.95;100.00
30730;BME280;17476;48.458;7.928;2024-03-02T05:54:21;98741.88;;;5.01;100.00
30730;BME280;17476;48.458;7.928;2024-03-02T05:56:47;98749.19;;;5.06;100.00
30730;BME280;17476;48.458;7.928;2024-03-02T05:59:13;98744.97;;;5.05;100.00
30730;BME280;17476;48.458;7.928;2024-03-02T06:01:43;98747.91;;;5.10;100.00
30730;BME280;17476;48.458;7.928;2024-03-02T06:04:13;98742.22;;;5.06;100.00
30730;BME280;17476;48.458;7.928;2024-03-02T06:06:40;98748.09;;;5.16;100.00
30730;BME280;17476;48.458;7.928;2024-03-02T06:09:06;98743.53;;;5.18;100.00
30730;BME280;17476;48.458;7.928;2024-03-02T06:11:38;98744.72;;;5.32;99.63
30730;BME280;17476;48.458;7.928;2024-03-02T06:14:08;98750.56;;;5.42;99.11
30730;BME280;17476;48.458;7.928;2024-03-02T06:16:34;98748.94;;;5.41;98.97
30730;BME280;17476;48.458;7.928;2024-03-02T06:19:01;98743.91;;;5.48;99.44
30730;BME280;17476;48.458;7.928;2024-03-02T06:21:27;98741.66;;;5.61;98.21
30730;BME280;17476;48.458;7.928;2024-03-02T06:23:53;98743.31;;;5.62;97.54
30730;BME280;17476;48.458;7.928;2024-03-02T06:26:19;98748.00;;;5.67;97.37
30730;BME280;17476;48.458;7.928;2024-03-02T06:28:45;98746.88;;;5.78;97.79
30730;BME280;17476;48.458;7.928;2024-03-02T06:31:11;98750.91;;;5.80;96.78
30730;BME280;17476;48.458;7.928;2024-03-02T06:33:37;98752.25;;;5.92;96.15
30730;BME280;17476;48.458;7.928;2024-03-02T06:36:04;98745.09;;;5.94;95.66
30730;BME280;17476;48.458;7.928;2024-03-02T06:38:30;98749.97;;;5.97;95.64
30730;BME280;17476;48.458;7.928;2024-03-02T06:40:57;98740.88;;;6.01;95.69
30730;BME280;17476;48.458;7.928;2024-03-02T06:43:23;98734.03;;;6.09;95.64
30730;BME280;17476;48.458;7.928;2024-03-02T06:45:50;98734.69;;;6.19;95.41
30730;BME280;17476;48.458;7.928;2024-03-02T06:48:17;98732.75;;;6.13;94.47
30730;BME280;17476;48.458;7.928;2024-03-02T06:50:47;98731.78;;;6.14;95.06
30730;BME280;17476;48.458;7.928;2024-03-02T06:53:16;98725.94;;;6.12;94.97
30730;BME280;17476;48.458;7.928;2024-03-02T06:55:45;98727.22;;;6.24;95.38
30730;BME280;17476;48.458;7.928;2024-03-02T06:58:15;98734.00;;;6.33;93.64
30730;BME280;17476;48.458;7.928;2024-03-02T07:00:44;98736.13;;;6.38;94.62
30730;BME280;17476;48.458;7.928;2024-03-02T07:03:10;98737.06;;;6.37;93.67
30730;BME280;17476;48.458;7.928;2024-03-02T07:05:36;98741.00;;;6.24;94.50
30730;BME280;17476;48.458;7.928;2024-03-02T07:08:02;98735.97;;;6.31;94.47
30730;BME280;17476;48.458;7.928;2024-03-02T07:10:29;98733.06;;;6.26;94.42
30730;BME280;17476;48.458;7.928;2024-03-02T07:12:54;98742.94;;;6.22;94.62
30730;BME280;17476;48.458;7.928;2024-03-02T07:15:20;98749.31;;;6.12;95.14
30730;BME280;17476;48.458;7.928;2024-03-02T07:18:06;98736.94;;;6.30;95.06
30730;BME280;17476;48.458;7.928;2024-03-02T07:20:31;98740.34;;;6.39;93.87
30730;BME280;17476;48.458;7.928;2024-03-02T07:22:57;98738.84;;;6.36;93.61
30730;BME280;17476;48.458;7.928;2024-03-02T07:25:23;98744.22;;;6.35;95.08
30730;BME280;17476;48.458;7.928;2024-03-02T07:27:49;98741.47;;;6.36;94.25
30730;BME280;17476;48.458;7.928;2024-03-02T07:30:15;98743.03;;;6.53;94.12
30730;BME280;17476;48.458;7.928;2024-03-02T07:32:43;98745.56;;;6.70;92.82
30730;BME280;17476;48.458;7.928;2024-03-02T07:35:12;98739.78;;;6.60;92.80
30730;BME280;17476;48.458;7.928;2024-03-02T07:37:39;98745.78;;;6.60;93.34
30730;BME280;17476;48.458;7.928;2024-03-02T07:40:06;98740.41;;;6.62;92.35
30730;BME280;17476;48.458;7.928;2024-03-02T07:42:35;98746.88;;;6.74;93.27
30730;BME280;17476;48.458;7.928;2024-03-02T07:45:01;98736.34;;;6.67;92.30
30730;BME280;17476;48.458;7.928;2024-03-02T07:47:27;98742.44;;;6.82;91.85
30730;BME280;17476;48.458;7.928;2024-03-02T07:49:52;98743.38;;;6.90;91.05
30730;BME280;17476;48.458;7.928;2024-03-02T07:52:18;98745.00;;;6.91;91.33
30730;BME280;17476;48.458;7.928;2024-03-02T07:54:44;98750.84;;;6.93;90.98
30730;BME280;17476;48.458;7.928;2024-03-02T07:57:09;98756.94;;;7.08;90.37
30730;BME280;17476;48.458;7.928;2024-03-02T07:59:36;98747.28;;;7.25;90.81
30730;BME280;17476;48.458;7.928;2024-03-02T08:02:02;98747.97;;;7.19;90.31
30730;BME280;17476;48.458;7.928;2024-03-02T08:04:28;98743.13;;;7.38;89.68
30730;BME280;17476;48.458;7.928;2024-03-02T08:06:54;98751.41;;;7.42;88.64
30730;BME280;17476;48.458;7.928;2024-03-02T08:09:20;98746.66;;;7.46;89.64
30730;BME280;17476;48.458;7.928;2024-03-02T08:11:46;98744.44;;;7.57;88.01
30730;BME280;17476;48.458;7.928;2024-03-02T08:14:11;98747.34;;;7.62;87.71
30730;BME280;17476;48.458;7.928;2024-03-02T08:16:37;98741.09;;;7.72;88.07
30730;BME280;17476;48.458;7.928;2024-03-02T08:19:03;98746.25;;;7.80;86.85
30730;BME280;17476;48.458;7.928;2024-03-02T08:21:29;98745.47;;;7.94;86.96
30730;BME280;17476;48.458;7.928;2024-03-02T08:23:57;98732.50;;;8.09;87.16
30730;BME280;17476;48.458;7.928;2024-03-02T08:26:23;98733.41;;;8.16;85.96
30730;BME280;17476;48.458;7.928;2024-03-02T08:28:49;98737.53;;;8.25;86.23
30730;BME280;17476;48.458;7.928;2024-03-02T08:31:15;98734.81;;;8.41;85.70
30730;BME280;17476;48.458;7.928;2024-03-02T08:33:40;98731.56;;;8.54;85.01
30730;BME280;17476;48.458;7.928;2024-03-02T08:36:06;98736.31;;;8.65;84.65
30730;BME280;17476;48.458;7.928;2024-03-02T08:38:35;98733.34;;;8.68;83.88
30730;BME280;17476;48.458;7.928;2024-03-02T08:41:01;98732.25;;;8.78;83.88
30730;BME280;17476;48.458;7.928;2024-03-02T08:43:27;98734.34;;;8.82;84.18
30730;BME280;17476;48.458;7.928;2024-03-02T08:45:52;98726.03;;;8.93;82.79
30730;BME280;17476;48.458;7.928;2024-03-02T08:48:18;98729.28;;;8.95;82.52
30730;BME280;17476;48.458;7.928;2024-03-02T08:50:45;98731.50;;;8.98;82.97
30730;BME280;17476;48.458;7.928;2024-03-02T08:53:11;98730.84;;;9.11;81.46
30730;BME280;17476;48.458;7.928;2024-03-02T08:55:37;98732.13;;;9.15;81.90
30730;BME280;17476;48.458;7.928;2024-03-02T08:58:03;98734.41;;;9.25;81.95
30730;BME280;17476;48.458;7.928;2024-03-02T09:00:29;98735.75;;;9.36;81.04
30730;BME280;17476;48.458;7.928;2024-03-02T09:02:54;98736.03;;;9.47;81.39
30730;BME280;17476;48.458;7.928;2024-03-02T09:05:20;98732.94;;;9.58;81.06
30730;BME280;17476;48.458;7.928;2024-03-02T09:07:46;98731.88;;;9.74;79.61
30730;BME280;17476;48.458;7.928;2024-03-02T09:10:12;98732.38;;;9.84;79.66
30730;BME280;17476;48.458;7.928;2024-03-02T09:12:38;98726.09;;;10.07;79.96
30730;BME280;17476;48.458;7.928;2024-03-02T09:15:05;98728.47;;;10.23;78.68
30730;BME280;17476;48.458;7.928;2024-03-02T09:17:33;98728.56;;;10.36;78.72
30730;BME280;17476;48.458;7.928;2024-03-02T09:19:59;98726.41;;;10.47;77.58
30730;BME280;17476;48.458;7.928;2024-03-02T09:22:25;98729.31;;;10.65;78.77
30730;BME280;17476;48.458;7.928;2024-03-02T09:24:51;98732.19;;;10.83;78.78
30730;BME280;17476;48.458;7.928;2024-03-02T09:27:16;98732.44;;;10.88;76.46
30730;BME280;17476;48.458;7.928;2024-03-02T09:29:42;98725.22;;;11.04;77.24
30730;BME280;17476;48.458;7.928;2024-03-02T09:32:13;98725.69;;;11.20;76.90
30730;BME280;17476;48.458;7.928;2024-03-02T09:34:39;98716.28;;;11.33;76.77
30730;BME280;17476;48.458;7.928;2024-03-02T09:37:06;98706.81;;;11.38;74.59
30730;BME280;17476;48.458;7.928;2024-03-02T09:39:32;98713.47;;;11.47;75.32
30730;BME280;17476;48.458;7.928;2024-03-02T09:41:59;98709.66;;;11.63;76.82
30730;BME280;17476;48.458;7.928;2024-03-02T09:44:25;98708.47;;;11.79;73.59
30730;BME280;17476;48.458;7.928;2024-03-02T09:46:52;98708.69;;;11.97;74.40
30730;BME280;17476;48.458;7.928;2024-03-02T09:49:18;98707.84;;;12.17;73.43
30730;BME280;17476;48.458;7.928;2024-03-02T09:51:49;98691.72;;;12.26;73.19
30730;BME280;17476;48.458;7.928;2024-03-02T09:54:16;98700.97;;;12.36;71.21
30730;BME280;17476;48.458;7.928;2024-03-02T09:56:42;98695.66;;;12.55;70.90
30730;BME280;17476;48.458;7.928;2024-03-02T09:59:08;98696.44;;;12.69;68.87
30730;BME280;17476;48.458;7.928;2024-03-02T10:01:34;98693.72;;;12.89;70.83
30730;BME280;17476;48.458;7.928;2024-03-02T10:04:00;98699.69;;;13.09;68.35
30730;BME280;17476;48.458;7.928;2024-03-02T10:06:28;98692.03;;;13.39;69.70
30730;BME280;17476;48.458;7.928;2024-03-02T10:08:55;98687.47;;;13.60;70.09
30730;BME280;17476;48.458;7.928;2024-03-02T10:11:28;98688.97;;;13.74;68.02
30730;BME280;17476;48.458;7.928;2024-03-02T10:14:11;98682.84;;;13.80;67.30
30730;BME280;17476;48.458;7.928;2024-03-02T10:16:38;98678.56;;;13.86;68.87
30730;BME280;17476;48.458;7.928;2024-03-02T10:19:24;98680.16;;;13.87;68.15
30730;BME280;17476;48.458;7.928;2024-03-02T10:21:50;98685.69;;;14.04;67.04
30730;BME280;17476;48.458;7.928;2024-03-02T10:24:18;98673.09;;;14.31;68.56
30730;BME280;17476;48.458;7.928;2024-03-02T10:26:44;98672.66;;;14.52;65.81
30730;BME280;17476;48.458;7.928;2024-03-02T10:29:11;98670.13;;;14.94;68.11
30730;BME280;17476;48.458;7.928;2024-03-02T10:31:38;98678.56;;;15.14;63.27
30730;BME280;17476;48.458;7.928;2024-03-02T10:34:04;98670.63;;;15.44;63.32
30730;BME280;17476;48.458;7.928;2024-03-02T10:36:30;98668.63;;;15.70;59.90
30730;BME280;17476;48.458;7.928;2024-03-02T10:38:56;98668.63;;;16.05;60.62
30730;BME280;17476;48.458;7.928;2024-03-02T10:41:25;98666.78;;;16.41;58.60
30730;BME280;17476;48.458;7.928;2024-03-02T10:43:53;98666.16;;;16.74;58.87
30730;BME280;17476;48.458;7.928;2024-03-02T10:46:28;98662.72;;;17.18;59.30
30730;BME280;17476;48.458;7.928;2024-03-02T10:48:59;98662.63;;;17.59;56.85
30730;BME280;17476;48.458;7.928;2024-03-02T10:51:30;98651.00;;;17.93;55.75
30730;BME280;17476;48.458;7.928;2024-03-02T10:54:00;98640.66;;;18.09;55.14
30730;BME280;17476;48.458;7.928;2024-03-02T10:56:37;98649.72;;;17.96;52.34
30730;BME280;17476;48.458;7.928;2024-03-02T11:01:56;98647.81;;;18.52;50.66
30730;BME280;17476;48.458;7.928;2024-03-02T11:04:25;98642.00;;;18.99;49.64
30730;BME280;17476;48.458;7.928;2024-03-02T11:07:00;98642.72;;;19.21;48.64
30730;BME280;17476;48.458;7.928;2024-03-02T11:09:29;98647.06;;;19.59;47.14
30730;BME280;17476;48.458;7.928;2024-03-02T11:12:19;98649.94;;;19.26;44.12
30730;BME280;17476;48.458;7.928;2024-03-02T11:14:47;98644.03;;;19.51;47.02
30730;BME280;17476;48.458;7.928;2024-03-02T11:17:15;98644.06;;;19.88;42.26
30730;BME280;17476;48.458;7.928;2024-03-02T11:19:43;98644.50;;;19.75;42.25
30730;BME280;17476;48.458;7.928;2024-03-02T11:22:10;98644.50;;;20.12;41.96
30730;BME280;17476;48.458;7.928;2024-03-02T11:24:36;98645.88;;;19.82;41.67
30730;BME280;17476;48.458;7.928;2024-03-02T11:27:04;98633.25;;;20.00;40.81
30730;BME280;17476;48.458;7.928;2024-03-02T11:34:49;98628.31;;;20.91;43.41
30730;BME280;17476;48.458;7.928;2024-03-02T11:37:17;98620.88;;;20.83;42.32
30730;BME280;17476;48.458;7.928;2024-03-02T11:39:44;98612.63;;;20.85;42.49
30730;BME280;17476;48.458;7.928;2024-03-02T11:42:12;98617.50;;;21.29;42.73
30730;BME280;17476;48.458;7.928;2024-03-02T11:44:42;98603.66;;;21.52;42.00
30730;BME280;17476;48.458;7.928;2024-03-02T11:47:12;98607.66;;;21.44;42.00
30730;BME280;17476;48.458;7.928;2024-03-02T11:49:49;98608.66;;;21.13;39.79
30730;BME280;17476;48.458;7.928;2024-03-02T11:52:16;98601.00;;;21.37;39.84
30730;BME280;17476;48.458;7.928;2024-03-02T11:54:45;98601.50;;;21.13;38.66
30730;BME280;17476;48.458;7.928;2024-03-02T11:57:19;98607.00;;;20.71;41.02
30730;BME280;17476;48.458;7.928;2024-03-02T11:59:48;98601.78;;;20.24;43.07
30730;BME280;17476;48.458;7.928;2024-03-02T12:02:18;98586.44;;;20.36;44.59
30730;BME280;17476;48.458;7.928;2024-03-02T12:04:44;98581.69;;;20.43;46.47
30730;BME280;17476;48.458;7.928;2024-03-02T12:07:11;98577.91;;;20.29;41.28
30730;BME280;17476;48.458;7.928;2024-03-02T12:09:38;98567.09;;;20.45;41.65
30730;BME280;17476;48.458;7.928;2024-03-02T12:12:10;98575.09;;;20.56;42.58
30730;BME280;17476;48.458;7.928;2024-03-02T12:14:37;98558.09;;;20.47;42.72
30730;BME280;17476;48.458;7.928;2024-03-02T12:17:05;98561.75;;;20.40;39.81
30730;BME280;17476;48.458;7.928;2024-03-02T12:19:32;98563.34;;;20.36;40.05
30730;BME280;17476;48.458;7.928;2024-03-02T12:21:58;98564.63;;;20.29;39.48
30730;BME280;17476;48.458;7.928;2024-03-02T12:24:28;98557.84;;;19.85;38.75
30730;BME280;17476;48.458;7.928;2024-03-02T12:26:54;98553.13;;;20.03;38.65
30730;BME280;17476;48.458;7.928;2024-03-02T12:29:20;98549.72;;;20.12;38.14
30730;BME280;17476;48.458;7.928;2024-03-02T12:31:51;98539.28;;;19.96;37.60
30730;BME280;17476;48.458;7.928;2024-03-02T12:34:18;98535.66;;;20.12;38.01
30730;BME280;17476;48.458;7.928;2024-03-02T12:36:45;98539.41;;;20.21;40.48
30730;BME280;17476;48.458;7.928;2024-03-02T12:39:13;98537.00;;;20.25;37.76
30730;BME280;17476;48.458;7.928;2024-03-02T12:41:39;98537.09;;;20.50;38.71
30730;BME280;17476;48.458;7.928;2024-03-02T12:44:05;98532.34;;;20.57;37.40
30730;BME280;17476;48.458;7.928;2024-03-02T12:46:32;98530.94;;;20.34;36.11
30730;BME280;17476;48.458;7.928;2024-03-02T12:49:11;98528.88;;;20.47;37.60
30730;BME280;17476;48.458;7.928;2024-03-02T12:51:39;98521.19;;;20.55;35.85
30730;BME280;17476;48.458;7.928;2024-03-02T12:54:08;98522.78;;;20.46;36.37
30730;BME280;17476;48.458;7.928;2024-03-02T12:56:36;98511.03;;;20.42;36.17
30730;BME280;17476;48.458;7.928;2024-03-02T12:59:04;98515.59;;;20.57;36.76
30730;BME280;17476;48.458;7.928;2024-03-02T13:01:30;98510.50;;;20.35;36.36
30730;BME280;17476;48.458;7.928;2024-03-02T13:03:58;98506.06;;;20.61;36.85
30730;BME280;17476;48.458;7.928;2024-03-02T13:06:25;98500.19;;;20.64;35.37
30730;BME280;17476;48.458;7.928;2024-03-02T13:08:54;98503.94;;;21.04;35.52
30730;BME280;17476;48.458;7.928;2024-03-02T13:11:22;98499.34;;;21.60;36.13
30730;BME280;17476;48.458;7.928;2024-03-02T13:13:49;98499.69;;;22.13;33.97
30730;BME280;17476;48.458;7.928;2024-03-02T13:16:16;98495.66;;;22.65;33.38
30730;BME280;17476;48.458;7.928;2024-03-02T13:18:44;98503.25;;;23.16;31.47